createdAt,value
2023-03-22T00:01:15.869Z,99410.33
2023-03-22T00:03:44.593Z,99411.95
2023-03-22T00:06:16.883Z,99411.84
2023-03-22T00:08:48.645Z,99407.44
2023-03-22T00:11:24.396Z,99404.87
2023-03-22T00:13:53.875Z,99408.55
2023-03-22T00:16:22.392Z,99407.14
2023-03-22T00:18:59.809Z,99408.44
2023-03-22T00:21:29.669Z,99406.23
2023-03-22T00:23:58.306Z,99407.64
2023-03-22T00:26:26.615Z,99403.29
2023-03-22T00:28:54.865Z,99400.56
2023-03-22T00:31:23.310Z,99406.45
2023-03-22T00:33:52.653Z,99411.56
2023-03-22T00:36:21.140Z,99407.38
2023-03-22T00:38:52.575Z,99409.30
2023-03-22T00:41:22.708Z,99413.81
2023-03-22T00:43:56.755Z,99414.49
2023-03-22T00:46:25.364Z,99416.77
2023-03-22T00:48:53.757Z,99414.55
2023-03-22T00:51:24.568Z,99415.36
2023-03-22T00:53:54.273Z,99416.39
2023-03-22T00:56:25.669Z,99416.48
2023-03-22T00:59:14.507Z,99415.46
2023-03-22T01:01:47.023Z,99419.21
2023-03-22T01:04:18.316Z,99417.34
2023-03-22T01:06:47.400Z,99415.45
2023-03-22T01:09:16.094Z,99414.18
2023-03-22T01:11:45.881Z,99413.71
2023-03-22T01:14:14.516Z,99413.71
2023-03-22T01:16:43.351Z,99417.86
2023-03-22T01:19:11.720Z,99414.00
2023-03-22T01:21:40.555Z,99414.98
2023-03-22T01:24:08.881Z,99418.14
2023-03-22T01:26:39.005Z,99417.66
2023-03-22T01:29:07.462Z,99415.88
2023-03-22T01:31:35.903Z,99424.20
2023-03-22T01:34:04.635Z,99422.67
2023-03-22T01:36:33.683Z,99425.29
2023-03-22T01:39:02.241Z,99427.04
2023-03-22T01:41:35.287Z,99423.59
2023-03-22T01:44:18.259Z,99427.62
2023-03-22T01:46:48.431Z,99430.25
2023-03-22T01:49:31.661Z,99430.00
2023-03-22T01:52:04.577Z,99432.58
2023-03-22T01:55:02.576Z,99435.31
2023-03-22T01:57:42.186Z,99442.90
2023-03-22T02:00:16.040Z,99443.94
2023-03-22T02:03:04.516Z,99444.73
2023-03-22T02:05:37.626Z,99443.55
2023-03-22T02:08:09.461Z,99443.13
2023-03-22T02:11:01.784Z,99445.65
2023-03-22T02:13:34.493Z,99447.59
2023-03-22T02:16:35.456Z,99451.05
2023-03-22T02:19:15.781Z,99451.66
2023-03-22T02:22:02.130Z,99449.44
2023-03-22T02:24:49.751Z,99452.27
2023-03-22T02:27:31.932Z,99449.77
2023-03-22T02:30:10.810Z,99451.73
2023-03-22T02:32:48.509Z,99447.88
2023-03-22T02:35:26.259Z,99454.14
2023-03-22T02:37:57.820Z,99453.36
2023-03-22T02:40:48.239Z,99454.05
2023-03-22T02:43:31.113Z,99455.38
2023-03-22T02:46:10.036Z,99462.94
2023-03-22T02:48:49.199Z,99463.73
2023-03-22T02:51:27.355Z,99465.23
2023-03-22T02:53:58.124Z,99464.84
2023-03-22T02:56:31.802Z,99466.93
2023-03-22T02:59:03.508Z,99469.58
2023-03-22T03:01:38.830Z,99475.20
2023-03-22T03:04:09.820Z,99481.15
2023-03-22T03:06:40.988Z,99480.27
2023-03-22T03:09:09.650Z,99483.80
2023-03-22T03:11:38.785Z,99484.36
2023-03-22T03:14:07.361Z,99489.42
2023-03-22T03:16:36.857Z,99487.46
2023-03-22T03:19:20.696Z,99484.54
2023-03-22T03:22:00.792Z,99486.70
2023-03-22T03:24:32.764Z,99490.54
2023-03-22T03:27:24.434Z,99487.64
2023-03-22T03:30:02.486Z,99493.15
2023-03-22T03:32:35.791Z,99497.42
2023-03-22T03:35:22.569Z,99498.56
2023-03-22T03:37:59.357Z,99505.73
2023-03-22T03:40:31.332Z,99508.83
2023-03-22T03:43:02.924Z,99511.21
2023-03-22T03:45:33.037Z,99510.91
2023-03-22T03:48:05.124Z,99508.65
2023-03-22T03:50:33.678Z,99505.62
2023-03-22T03:53:02.435Z,99506.60
2023-03-22T03:55:31.108Z,99506.41
2023-03-22T03:57:59.616Z,99505.50
2023-03-22T04:00:28.110Z,99504.40
2023-03-22T04:03:19.344Z,99502.42
2023-03-22T04:06:04.055Z,99506.70
2023-03-22T04:08:35.482Z,99503.85
2023-03-22T04:11:05.522Z,99504.34
2023-03-22T04:13:35.881Z,99502.66
2023-03-22T04:16:07.541Z,99507.58
2023-03-22T04:18:38.611Z,99510.42
2023-03-22T04:21:08.990Z,99513.13
2023-03-22T04:23:46.952Z,99517.56
2023-03-22T04:26:16.092Z,99522.20
2023-03-22T04:29:04.787Z,99519.92
2023-03-22T04:31:35.891Z,99518.63
2023-03-22T04:34:18.687Z,99520.63
2023-03-22T04:37:03.965Z,99520.64
2023-03-22T04:42:20.054Z,99524.94
2023-03-22T04:44:49.074Z,99522.46
2023-03-22T04:47:18.256Z,99518.14
2023-03-22T04:49:50.549Z,99519.09
2023-03-22T04:52:19.183Z,99524.13
2023-03-22T04:54:54.067Z,99521.77
2023-03-22T04:57:22.901Z,99526.98
2023-03-22T04:59:53.749Z,99531.67
2023-03-22T05:02:22.989Z,99531.54
2023-03-22T05:04:51.636Z,99538.98
2023-03-22T05:07:36.861Z,99540.52
2023-03-22T05:10:07.830Z,99545.30
2023-03-22T05:12:36.210Z,99547.85
2023-03-22T05:15:21.112Z,99548.33
2023-03-22T05:17:52.999Z,99549.73
2023-03-22T05:20:21.371Z,99546.75
2023-03-22T05:22:58.200Z,99543.23
2023-03-22T05:25:27.582Z,99537.80
2023-03-22T05:28:02.036Z,99539.40
2023-03-22T05:30:52.247Z,99541.08
2023-03-22T05:33:35.006Z,99545.08
2023-03-22T05:36:04.247Z,99557.28
2023-03-22T05:38:35.595Z,99567.58
2023-03-22T05:41:05.463Z,99578.27
2023-03-22T05:43:34.357Z,99582.98
2023-03-22T05:46:08.880Z,99586.20
2023-03-22T05:48:51.419Z,99588.02
2023-03-22T05:51:20.057Z,99587.38
2023-03-22T05:53:53.673Z,99586.58
2023-03-22T05:56:29.772Z,99591.85
2023-03-22T05:59:12.314Z,99596.67
2023-03-22T06:01:43.677Z,99597.30
2023-03-22T06:04:21.299Z,99599.39
2023-03-22T06:07:07.344Z,99600.89
2023-03-22T06:10:07.130Z,99600.69
2023-03-22T06:12:38.094Z,99609.86
2023-03-22T06:15:12.751Z,99613.48
2023-03-22T06:18:00.170Z,99612.67
2023-03-22T06:20:32.015Z,99611.40
2023-03-22T06:23:04.591Z,99614.40
2023-03-22T06:25:33.695Z,99614.04
2023-03-22T06:28:03.006Z,99613.46
2023-03-22T06:30:31.855Z,99618.64
2023-03-22T06:33:21.740Z,99619.70
2023-03-22T06:35:55.980Z,99621.72
2023-03-22T06:38:32.474Z,99621.10
2023-03-22T06:41:00.846Z,99625.37
2023-03-22T06:43:30.232Z,99623.73
2023-03-22T06:46:11.870Z,99622.05
2023-03-22T06:48:48.244Z,99619.15
2023-03-22T06:51:19.571Z,99617.94
2023-03-22T06:53:48.568Z,99621.17
2023-03-22T06:56:17.124Z,99618.59
2023-03-22T06:58:51.976Z,99617.45
2023-03-22T07:01:24.125Z,99618.91
2023-03-22T07:03:55.369Z,99620.19
2023-03-22T07:06:25.212Z,99621.05
2023-03-22T07:08:53.837Z,99620.31
2023-03-22T07:11:26.948Z,99621.11
2023-03-22T07:14:00.288Z,99620.61
2023-03-22T07:16:35.813Z,99624.16
2023-03-22T07:19:09.342Z,99624.29
2023-03-22T07:21:38.155Z,99626.17
2023-03-22T07:24:09.356Z,99627.06
2023-03-22T07:26:39.362Z,99628.28
2023-03-22T07:29:08.958Z,99630.46
2023-03-22T07:31:38.192Z,99634.63
2023-03-22T07:34:27.635Z,99636.33
2023-03-22T07:37:05.219Z,99637.41
2023-03-22T07:39:35.015Z,99632.96
2023-03-22T07:42:05.896Z,99631.35
2023-03-22T07:44:57.400Z,99631.98
2023-03-22T07:47:39.833Z,99629.94
2023-03-22T07:50:24.462Z,99633.56
2023-03-22T07:52:56.241Z,99634.46
2023-03-22T07:55:24.685Z,99630.45
2023-03-22T07:57:53.973Z,99634.52
2023-03-22T08:00:23.448Z,99633.70
2023-03-22T08:02:58.121Z,99633.50
2023-03-22T08:05:44.651Z,99631.80
2023-03-22T08:08:15.784Z,99632.09
2023-03-22T08:10:50.855Z,99632.64
2023-03-22T08:13:19.979Z,99630.45
2023-03-22T08:15:48.556Z,99634.52
2023-03-22T08:18:19.438Z,99635.54
2023-03-22T08:20:59.673Z,99634.85
2023-03-22T08:23:41.029Z,99636.98
2023-03-22T08:26:39.905Z,99635.59
2023-03-22T08:29:16.418Z,99634.25
2023-03-22T08:31:48.210Z,99640.00
2023-03-22T08:34:16.617Z,99638.03
2023-03-22T08:36:46.581Z,99647.04
2023-03-22T08:39:16.204Z,99643.81
2023-03-22T08:42:09.221Z,99645.92
2023-03-22T08:44:38.168Z,99644.40
2023-03-22T08:47:06.783Z,99643.39
2023-03-22T08:49:35.778Z,99639.20
2023-03-22T08:52:09.550Z,99641.15
2023-03-22T08:54:45.463Z,99643.50
2023-03-22T08:57:50.478Z,99639.18
2023-03-22T09:00:47.859Z,99643.22
2023-03-22T09:03:25.142Z,99645.20
2023-03-22T09:05:53.665Z,99645.17
2023-03-22T09:08:23.350Z,99646.41
2023-03-22T09:11:00.111Z,99648.64
2023-03-22T09:13:31.571Z,99646.80
2023-03-22T09:16:04.293Z,99647.54
2023-03-22T09:18:36.342Z,99645.44
2023-03-22T09:21:10.579Z,99640.15
2023-03-22T09:23:50.595Z,99635.73
2023-03-22T09:26:22.973Z,99635.29
2023-03-22T09:28:52.338Z,99635.42
2023-03-22T09:31:21.021Z,99633.45
2023-03-22T09:33:55.291Z,99643.00
2023-03-22T09:36:23.853Z,99644.25
2023-03-22T09:38:53.141Z,99647.02
2023-03-22T09:41:34.711Z,99648.41
2023-03-22T09:44:05.712Z,99645.52
2023-03-22T09:46:44.554Z,99644.92
2023-03-22T09:49:19.927Z,99645.22
2023-03-22T09:51:54.034Z,99641.99
2023-03-22T09:54:35.403Z,99642.52
2023-03-22T09:57:09.774Z,99640.77
2023-03-22T09:59:44.703Z,99641.73
2023-03-22T10:02:35.523Z,99633.34
2023-03-22T10:05:15.796Z,99639.35
2023-03-22T10:08:03.122Z,99635.11
2023-03-22T10:10:31.814Z,99634.23
2023-03-22T10:13:20.098Z,99629.92
2023-03-22T10:15:52.575Z,99629.61
2023-03-22T10:18:26.054Z,99634.45
2023-03-22T10:21:04.892Z,99632.66
2023-03-22T10:23:45.953Z,99628.50
2023-03-22T10:26:22.974Z,99625.94
2023-03-22T10:29:02.700Z,99620.85
2023-03-22T10:31:32.407Z,99621.52
2023-03-22T10:34:06.805Z,99621.41
2023-03-22T10:36:37.440Z,99624.15
2023-03-22T10:39:24.277Z,99618.84
2023-03-22T10:41:55.363Z,99614.63
2023-03-22T10:44:24.956Z,99615.77
2023-03-22T10:47:00.453Z,99617.45
2023-03-22T10:49:32.498Z,99616.11
2023-03-22T10:52:39.766Z,99617.34
2023-03-22T10:55:12.754Z,99615.58
2023-03-22T10:57:43.293Z,99620.20
2023-03-22T11:00:15.585Z,99612.04
2023-03-22T11:02:52.352Z,99610.95
2023-03-22T11:05:28.766Z,99606.27
2023-03-22T11:07:59.095Z,99605.14
2023-03-22T11:10:32.873Z,99599.97
2023-03-22T11:13:09.969Z,99601.13
2023-03-22T11:15:42.467Z,99598.75
2023-03-22T11:18:13.297Z,99596.39
2023-03-22T11:21:11.321Z,99591.67
2023-03-22T11:23:41.445Z,99583.55
2023-03-22T11:26:12.242Z,99580.56
2023-03-22T11:28:50.400Z,99583.69
2023-03-22T11:31:20.017Z,99581.66
2023-03-22T11:33:56.042Z,99580.25
2023-03-22T11:36:24.703Z,99577.32
2023-03-22T11:39:07.475Z,99567.79
2023-03-22T11:41:36.999Z,99570.28
2023-03-22T11:44:12.393Z,99568.57
2023-03-22T11:47:00.033Z,99572.55
2023-03-22T11:49:45.766Z,99571.92
2023-03-22T11:52:23.625Z,99568.80
2023-03-22T11:54:52.077Z,99573.41
2023-03-22T11:57:25.454Z,99570.31
2023-03-22T12:00:11.725Z,99572.75
2023-03-22T12:02:50.064Z,99570.70
2023-03-22T12:05:24.600Z,99571.81
2023-03-22T12:08:12.118Z,99567.26
2023-03-22T12:10:42.471Z,99569.53
2023-03-22T12:13:30.845Z,99571.70
2023-03-22T12:16:01.066Z,99571.15
2023-03-22T12:18:51.449Z,99569.57
2023-03-22T12:21:20.086Z,99566.73
2023-03-22T12:23:48.742Z,99567.00
2023-03-22T12:26:22.322Z,99563.90
2023-03-22T12:28:59.560Z,99561.52
2023-03-22T12:31:36.724Z,99560.05
2023-03-22T12:34:07.485Z,99555.02
2023-03-22T12:36:47.105Z,99553.24
2023-03-22T12:39:41.367Z,99549.85
2023-03-22T12:42:19.360Z,99550.73
2023-03-22T12:45:02.223Z,99555.72
2023-03-22T12:47:38.618Z,99557.20
2023-03-22T12:50:18.861Z,99551.83
2023-03-22T12:52:54.886Z,99546.20
2023-03-22T12:55:30.203Z,99548.59
2023-03-22T12:58:06.463Z,99547.49
2023-03-22T13:00:58.657Z,99545.98
2023-03-22T13:03:30.023Z,99542.90
2023-03-22T13:06:03.808Z,99539.63
2023-03-22T13:09:02.428Z,99537.96
2023-03-22T13:11:36.286Z,99533.33
2023-03-22T13:14:04.828Z,99532.15
2023-03-22T13:16:49.138Z,99535.59
2023-03-22T13:19:28.886Z,99533.78
2023-03-22T13:22:35.943Z,99532.43
2023-03-22T13:25:23.812Z,99530.40
2023-03-22T13:27:59.869Z,99532.95
2023-03-22T13:30:50.711Z,99536.24
2023-03-22T13:33:30.194Z,99533.64
2023-03-22T13:36:07.641Z,99538.52
2023-03-22T13:38:42.107Z,99536.93
2023-03-22T13:41:21.349Z,99533.57
2023-03-22T13:43:50.659Z,99532.61
2023-03-22T13:46:22.387Z,99531.40
2023-03-22T13:49:11.738Z,99533.44
2023-03-22T13:51:40.109Z,99530.27
2023-03-22T13:54:09.716Z,99530.80
2023-03-22T13:56:42.603Z,99522.46
2023-03-22T14:00:08.816Z,99527.80
2023-03-22T14:03:06.253Z,99531.39
2023-03-22T14:05:36.557Z,99526.89
2023-03-22T14:08:05.397Z,99528.26
2023-03-22T14:10:53.030Z,99524.98
2023-03-22T14:13:35.495Z,99521.84
2023-03-22T14:16:11.813Z,99517.96
2023-03-22T14:18:43.521Z,99519.88
2023-03-22T14:21:18.095Z,99519.10
